Belo Horizonte, Brazil

3:51 AM BRST en Febrero 14, 2016 (GMT -0200)
Tancredo Neves International | | Change Station
CLOSE
Current Station
Aeropuerto
Location: Belo Horizonte,
Altura: 2713 ft
Estaciones meteorológicas cercanas

Alt 2713 ft 19.64 °S, 43.97 °W | Updated 51 minutes ago

Scattered Clouds
Nubes dispersas
72 ° F
Sensación térmica 72 ° F
N
5
Viento Variable Viento desde ENE

Hoy
Alta -- | Baja -- ° F
--% Posibilidad de precipitaciones
Ayer
Alta -- | Baja -- ° F
Precip. -- pul
Presión 30.01 pul
Visibilidad 6.2 Millas
Nubes Nubes dispersas 4000 ft
Punto de rocío 66 ° F
Humedad 83%
Precipitaciones 0.00 pul
Espesor de la nieve No disponible.
6:47 AM 7:32 PM
Creciente, 38% visible
METAR SBCF 140500Z 06004KT 9999 SCT040 22/19 Q1016
Presión 30.01 pul
Visibilidad 6.2 Millas
Nubes Nubes dispersas 4000 ft
Punto de rocío 66 ° F
Humedad 83%
Precipitaciones 0.00 pul
Espesor de la nieve No disponible.
6:47 AM 7:32 PM
Creciente, 38% visible
METAR SBCF 140500Z 06004KT 9999 SCT040 22/19 Q1016

10-Day Weather Forecast

No radar image for this location.
×

Almanac

Astronomía

Feb. 14, 2016 Salida Puesta
Hora real
Crepúsculo civil
Crepúsculo náutico
Crepúsculo astronómico
Luna
Horas de luz
Horas de luz
Tomorrow will be .
, % of the Moon is Illuminated

Extremos de hoy

Máximos del país Bajas del país

Community

WunderPhotos

Upload Photos

1,892,751 ¡fotos cargadas!

WunderBlog® & News

Nearby

Calidad del aire

  Calidad del aire Índice AQ Contaminante
Not available.

Grosos de nieve

Estación Profundido Altura

Actividad de terremotos

Ciudad Distance Mag. Tiempo y dato
Magnitud mínima muestra es 2,5.

Temperaturas de aguas costeras

Lugar Temperatura

Stations

Estaciones meteorológicas cercanas

Ubicación de la estación Temp. Vientos helados Punto de rocío Humedad Viento Precip. Alt Actualizado Tipo